Time;durP1;ratioP1;P1;durP2;ratioP2;P2;SDS_P1;SDS_P2;PMS_P1;PMS_P2;Temp;Humidity;BMP_temperature;BMP_pressure;BME280_temperature;BME280_humidity;BME280_pressure;Samples;Min_cycle;Max_cycle;Signal;HPM_P1;HPM_P2
2023/08/19 00:02:11;;;;;;;5.90;3.50;;;;;;;23.66;65.55;100388.97;5039265;28;20080;-71
2023/08/19 00:04:37;;;;;;;7.30;3.85;;;;;;;23.89;64.29;100403.50;5040414;28;20128;-69
2023/08/19 00:07:03;;;;;;;7.78;4.15;;;;;;;24.06;63.19;100413.75;5034116;28;20560;-72
2023/08/19 00:09:29;;;;;;;9.13;3.80;;;;;;;24.14;62.51;100416.22;5034363;28;20025;-69
2023/08/19 00:11:54;;;;;;;6.15;3.25;;;;;;;24.16;62.36;100422.34;5037538;28;20044;-72
2023/08/19 00:14:19;;;;;;;7.82;3.58;;;;;;;23.74;63.30;100404.69;5037914;28;20045;-71
2023/08/19 00:16:45;;;;;;;5.97;3.67;;;;;;;23.34;65.21;100424.69;5037644;28;20072;-69
2023/08/19 00:19:11;;;;;;;7.45;3.83;;;;;;;22.93;66.05;100365.63;5037109;28;20037;-68
2023/08/19 00:21:36;;;;;;;7.32;3.80;;;;;;;23.22;65.51;100382.75;5039548;28;20025;-70
2023/08/19 00:24:02;;;;;;;9.85;3.97;;;;;;;23.65;64.91;100428.56;5041968;28;20029;-67
2023/08/19 00:26:28;;;;;;;7.95;4.32;;;;;;;23.68;65.42;100408.28;5044261;28;20029;-67
2023/08/19 00:28:53;;;;;;;7.68;4.65;;;;;;;23.73;64.73;100401.16;5044503;28;20029;-68
2023/08/19 00:31:18;;;;;;;8.60;4.50;;;;;;;23.80;64.78;100396.66;5041367;28;20039;-71
2023/08/19 00:33:44;;;;;;;8.52;4.28;;;;;;;23.97;64.53;100398.97;5040049;28;20399;-70
2023/08/19 00:36:09;;;;;;;10.05;4.55;;;;;;;24.06;64.45;100392.66;5032746;28;20160;-69
2023/08/19 00:38:35;;;;;;;8.63;4.43;;;;;;;23.81;65.67;100385.19;5041528;28;20071;-68
2023/08/19 00:41:03;;;;;;;7.78;4.63;;;;;;;23.41;65.99;100333.25;5039552;28;20037;-68
2023/08/19 00:43:28;;;;;;;9.35;4.60;;;;;;;23.67;64.87;100371.41;5039498;28;20028;-67
2023/08/19 00:45:54;;;;;;;8.25;4.35;;;;;;;23.75;64.03;100380.03;5039608;28;20029;-67
2023/08/19 00:48:20;;;;;;;7.22;4.13;;;;;;;23.71;64.88;100400.34;5053952;28;20041;-69
2023/08/19 00:50:45;;;;;;;8.10;4.22;;;;;;;23.34;65.64;100361.47;5038021;28;20037;-72
2023/08/19 00:53:13;;;;;;;10.30;4.18;;;;;;;23.02;65.93;100348.81;5040944;28;20795;-68
2023/08/19 00:55:38;;;;;;;7.15;4.07;;;;;;;23.07;66.55;100424.19;5039161;28;20032;-68
2023/08/19 00:58:04;;;;;;;8.45;3.70;;;;;;;22.80;67.54;100428.09;5039303;28;20510;-72
2023/08/19 01:00:30;;;;;;;7.00;3.83;;;;;;;22.84;68.21;100436.84;5039140;28;20116;-68
2023/08/19 01:02:56;;;;;;;9.35;4.10;;;;;;;22.85;67.97;100428.91;5039418;28;20113;-69
2023/08/19 01:05:24;;;;;;;4.55;3.30;;;;;;;22.66;68.01;100390.63;5037899;28;20029;-67
2023/08/19 01:08:00;;;;;;;5.90;3.80;;;;;;;23.13;66.53;100435.53;5047554;28;20033;-70
2023/08/19 01:10:50;;;;;;;7.63;3.50;;;;;;;23.17;67.47;100430.22;5031142;28;20411;-68
2023/08/19 01:13:18;;;;;;;6.85;4.03;;;;;;;22.80;68.57;100424.63;5039315;28;20044;-67
2023/08/19 01:15:52;;;;;;;6.05;3.63;;;;;;;22.63;69.24;100428.38;5035901;28;20044;-71
2023/08/19 01:18:18;;;;;;;8.77;3.70;;;;;;;22.56;69.09;100426.69;5041009;28;20079;-69
2023/08/19 01:20:44;;;;;;;6.22;3.88;;;;;;;22.13;69.13;100370.22;5041245;28;20132;-70
2023/08/19 01:23:37;;;;;;;6.30;3.80;;;;;;;22.35;69.10;100430.44;5037582;28;20106;-68
2023/08/19 01:26:03;;;;;;;8.00;3.72;;;;;;;22.30;69.30;100426.09;5039697;28;20437;-70
2023/08/19 01:28:28;;;;;;;8.13;3.63;;;;;;;22.36;68.96;100408.53;5034020;28;20103;-68
2023/08/19 01:30:54;;;;;;;8.55;3.50;;;;;;;22.33;69.90;100424.31;5040625;28;20033;-68
2023/08/19 01:33:21;;;;;;;6.45;3.50;;;;;;;22.20;70.68;100428.88;5039385;28;20029;-70
2023/08/19 01:35:53;;;;;;;8.05;3.58;;;;;;;22.11;70.47;100428.06;5041009;28;20108;-68
2023/08/19 01:38:36;;;;;;;6.15;3.50;;;;;;;21.66;69.98;100377.75;5038652;28;20041;-69
2023/08/19 01:41:03;;;;;;;5.00;3.72;;;;;;;21.83;71.06;100431.91;5036418;28;20049;-67
2023/08/19 01:43:30;;;;;;;7.20;3.67;;;;;;;21.94;69.82;100432.66;5038825;28;20029;-68
2023/08/19 01:45:56;;;;;;;6.22;3.72;;;;;;;21.86;69.95;100410.81;5038707;28;20415;-73
2023/08/19 01:48:22;;;;;;;4.90;3.55;;;;;;;21.95;69.46;100423.88;5038931;28;20113;-67
2023/08/19 01:50:47;;;;;;;6.45;4.07;;;;;;;21.79;69.45;100437.19;5037105;28;20031;-66
2023/08/19 01:53:13;;;;;;;6.80;3.78;;;;;;;21.64;69.85;100439.94;5035309;28;20064;-68
2023/08/19 01:55:38;;;;;;;6.45;4.05;;;;;;;21.44;70.99;100461.13;5038662;28;20439;-67
2023/08/19 01:58:03;;;;;;;8.52;4.20;;;;;;;21.28;70.66;100450.75;5038317;28;20041;-68
2023/08/19 02:00:29;;;;;;;8.07;3.55;;;;;;;21.22;71.54;100434.16;5043401;28;20037;-68
2023/08/19 02:02:54;;;;;;;6.88;3.67;;;;;;;21.42;71.30;100441.84;5035963;28;20053;-67
2023/08/19 02:05:20;;;;;;;5.93;3.97;;;;;;;21.38;70.99;100442.78;5033909;28;20029;-68
2023/08/19 02:07:45;;;;;;;8.40;4.68;;;;;;;21.54;71.33;100446.16;5036083;28;20408;-68
2023/08/19 02:10:12;;;;;;;7.22;4.20;;;;;;;21.65;71.09;100442.56;5040573;28;20033;-66
2023/08/19 02:12:37;;;;;;;5.75;3.90;;;;;;;21.69;70.44;100430.28;5039852;28;20043;-68
2023/08/19 02:15:03;;;;;;;7.38;4.05;;;;;;;21.89;68.96;100437.09;5038694;28;20104;-69
2023/08/19 02:17:28;;;;;;;6.55;4.05;;;;;;;22.02;68.60;100443.06;5042126;28;20033;-68
2023/08/19 02:19:54;;;;;;;5.63;3.97;;;;;;;21.81;67.95;100424.88;5042431;28;20056;-67
2023/08/19 02:22:20;;;;;;;8.82;4.07;;;;;;;21.95;68.10;100442.28;5042654;28;20069;-67
2023/08/19 02:24:46;;;;;;;6.43;4.15;;;;;;;21.74;67.82;100370.66;5056827;28;20029;-68
2023/08/19 02:27:12;;;;;;;5.88;3.80;;;;;;;22.21;67.62;100420.09;5040755;28;20429;-68
2023/08/19 02:29:37;;;;;;;6.97;3.65;;;;;;;21.96;67.75;100368.66;5042135;28;20041;-68
2023/08/19 02:32:03;;;;;;;9.25;4.13;;;;;;;22.39;68.00;100417.28;5042190;28;20037;-73
2023/08/19 02:34:29;;;;;;;9.18;3.85;;;;;;;22.20;68.77;100411.31;5043050;28;20481;-68
2023/08/19 02:36:54;;;;;;;16.92;5.28;;;;;;;22.13;71.22;100421.06;5046782;28;20047;-67
2023/08/19 02:39:19;;;;;;;11.48;5.05;;;;;;;21.82;74.69;100352.19;5042191;28;20425;-68
2023/08/19 02:41:45;;;;;;;15.45;5.80;;;;;;;22.01;77.10;100387.00;5044046;28;20033;-68
2023/08/19 02:44:10;;;;;;;16.75;5.80;;;;;;;22.07;76.89;100407.97;5043831;28;20033;-68
2023/08/19 02:46:36;;;;;;;8.93;4.75;;;;;;;22.14;71.67;100421.91;5044227;28;20029;-67
2023/08/19 02:49:02;;;;;;;7.70;4.30;;;;;;;22.04;70.84;100412.41;5042267;28;20036;-68
2023/08/19 02:51:27;;;;;;;10.38;4.40;;;;;;;21.97;69.78;100409.84;5034620;28;20038;-71
2023/08/19 02:53:53;;;;;;;11.32;4.75;;;;;;;21.95;69.70;100394.97;5040760;28;20029;-68
2023/08/19 02:56:18;;;;;;;6.40;4.40;;;;;;;21.83;70.15;100392.47;5046150;28;20032;-68
2023/08/19 02:58:43;;;;;;;8.18;4.40;;;;;;;21.72;69.22;100388.22;5039465;28;20124;-66
2023/08/19 03:01:12;;;;;;;8.95;4.80;;;;;;;21.71;68.97;100381.22;5055000;28;20106;-67
2023/08/19 03:03:37;;;;;;;7.72;4.30;;;;;;;21.59;69.09;100371.69;5041617;28;20536;-68
2023/08/19 03:06:03;;;;;;;8.77;4.18;;;;;;;21.47;69.63;100343.78;5038151;28;20033;-68
2023/08/19 03:08:28;;;;;;;11.40;5.03;;;;;;;21.46;70.46;100349.91;5042670;28;20033;-67
2023/08/19 03:10:54;;;;;;;6.25;3.88;;;;;;;21.20;70.54;100310.78;5034075;28;20048;-70
2023/08/19 03:13:19;;;;;;;7.43;4.22;;;;;;;21.22;71.85;100330.03;5042654;28;20033;-67
2023/08/19 03:15:45;;;;;;;8.90;4.18;;;;;;;21.07;72.96;100315.28;5045905;28;20021;-68
2023/08/19 03:18:11;;;;;;;8.27;4.10;;;;;;;21.04;73.45;100312.66;5050181;28;20472;-70
2023/08/19 03:20:37;;;;;;;8.77;4.43;;;;;;;20.91;74.15;100319.78;5045325;28;20029;-68
2023/08/19 03:23:02;;;;;;;6.75;4.60;;;;;;;20.85;73.29;100330.31;5045422;28;20033;-68
2023/08/19 03:25:28;;;;;;;6.78;3.90;;;;;;;20.87;73.81;100338.16;5041438;28;20045;-72
2023/08/19 03:27:53;;;;;;;7.88;4.50;;;;;;;20.87;73.50;100320.66;5055977;28;20023;-68
2023/08/19 03:30:19;;;;;;;9.65;4.97;;;;;;;20.92;72.84;100316.28;5042837;28;20044;-67
2023/08/19 03:32:44;;;;;;;10.75;4.43;;;;;;;21.08;72.78;100351.09;5043065;28;20496;-70
2023/08/19 03:35:10;;;;;;;8.88;4.75;;;;;;;21.21;72.86;100364.13;5047933;28;20079;-70
2023/08/19 03:37:35;;;;;;;11.52;5.15;;;;;;;21.11;71.94;100327.47;5045808;28;20065;-67
2023/08/19 03:40:00;;;;;;;7.80;4.32;;;;;;;21.53;71.25;100370.84;5034257;28;20107;-65
2023/08/19 03:42:26;;;;;;;8.52;4.57;;;;;;;21.69;70.65;100376.88;5043372;28;20017;-69
2023/08/19 03:44:51;;;;;;;8.77;4.50;;;;;;;21.88;70.29;100386.28;5042749;28;20423;-68
2023/08/19 03:47:17;;;;;;;9.13;4.80;;;;;;;22.09;69.72;100393.06;5045117;28;20040;-70
2023/08/19 03:49:42;;;;;;;11.45;4.53;;;;;;;22.09;69.59;100397.44;5056037;28;20030;-68
2023/08/19 03:52:08;;;;;;;9.68;4.47;;;;;;;22.02;70.09;100407.16;5041500;28;20477;-74
2023/08/19 03:54:34;;;;;;;10.18;4.63;;;;;;;21.96;72.01;100397.56;5041021;28;20095;-68
2023/08/19 03:57:00;;;;;;;8.70;4.75;;;;;;;21.54;70.88;100399.72;5041309;28;20059;-70
2023/08/19 03:59:25;;;;;;;8.80;4.45;;;;;;;21.49;71.45;100404.16;5042404;28;20037;-68
2023/08/19 04:01:52;;;;;;;9.48;4.80;;;;;;;21.17;70.56;100345.81;5042821;28;20052;-69
2023/08/19 04:04:17;;;;;;;11.15;4.53;;;;;;;21.49;69.92;100356.88;5040501;28;20025;-72
2023/08/19 04:06:43;;;;;;;7.82;4.85;;;;;;;21.97;70.64;100395.84;5045844;28;20561;-67
2023/08/19 04:09:08;;;;;;;8.27;4.65;;;;;;;22.03;71.32;100403.66;5049965;28;20045;-71
2023/08/19 04:11:34;;;;;;;12.07;5.07;;;;;;;21.78;71.53;100372.38;5044638;28;20047;-67
2023/08/19 04:13:59;;;;;;;7.78;4.75;;;;;;;21.95;70.42;100400.22;5042365;28;20382;-68
2023/08/19 04:16:25;;;;;;;10.13;4.68;;;;;;;22.18;69.55;100405.22;5043696;28;20025;-70
2023/08/19 04:18:51;;;;;;;7.97;4.75;;;;;;;22.38;68.48;100397.13;5039746;28;20033;-68
2023/08/19 04:21:17;;;;;;;10.40;4.57;;;;;;;22.52;69.50;100398.66;5035085;28;20083;-68
2023/08/19 04:23:43;;;;;;;13.27;5.10;;;;;;;22.06;69.10;100324.72;5045424;28;20386;-74
2023/08/19 04:26:09;;;;;;;7.65;4.35;;;;;;;22.62;67.78;100409.06;5042466;28;20091;-71
2023/08/19 04:28:34;;;;;;;11.73;4.65;;;;;;;22.73;69.89;100393.13;5041966;28;20033;-68
2023/08/19 04:31:07;;;;;;;8.10;4.18;;;;;;;22.84;70.23;100381.56;5040481;28;20036;-72
2023/08/19 04:33:33;;;;;;;9.02;4.60;;;;;;;22.82;70.96;100367.53;5040931;28;20026;-68
2023/08/19 04:35:59;;;;;;;13.07;4.80;;;;;;;22.78;71.23;100369.38;5034864;28;20047;-68
2023/08/19 04:38:25;;;;;;;8.55;4.90;;;;;;;22.76;73.59;100358.84;5040711;28;20060;-66
2023/08/19 04:40:50;;;;;;;10.68;5.47;;;;;;;22.76;73.35;100356.22;5040924;28;20040;-67
2023/08/19 04:43:18;;;;;;;14.77;6.40;;;;;;;22.80;72.20;100345.66;5041947;28;20100;-71
2023/08/19 04:45:44;;;;;;;16.50;6.85;;;;;;;22.96;71.14;100359.44;5039866;28;20053;-68
2023/08/19 04:48:09;;;;;;;16.17;7.13;;;;;;;22.84;71.56;100342.06;5040973;28;20061;-73
2023/08/19 04:50:34;;;;;;;21.20;7.32;;;;;;;23.05;71.51;100370.72;5053947;28;20029;-70
2023/08/19 04:53:00;;;;;;;29.67;9.02;;;;;;;22.65;72.60;100312.56;5040840;28;20033;-67
2023/08/19 04:55:26;;;;;;;32.92;8.15;;;;;;;22.95;71.87;100382.25;5039559;28;20032;-67
2023/08/19 04:57:52;;;;;;;40.65;8.63;;;;;;;22.81;73.25;100366.69;5045313;28;20030;-67
2023/08/19 05:00:17;;;;;;;26.55;7.93;;;;;;;22.88;70.34;100393.78;5035660;28;20407;-71
2023/08/19 05:02:43;;;;;;;30.63;7.13;;;;;;;22.76;71.50;100371.16;5038926;28;20075;-67
2023/08/19 05:05:09;;;;;;;31.88;8.10;;;;;;;22.80;69.88;100375.47;5036361;28;20028;-71
2023/08/19 05:07:34;;;;;;;26.90;7.47;;;;;;;22.82;71.07;100372.81;5036681;28;20029;-71
2023/08/19 05:09:59;;;;;;;10.95;5.70;;;;;;;22.82;70.19;100359.66;5044907;28;20033;-70
2023/08/19 05:12:25;;;;;;;12.50;6.00;;;;;;;22.64;71.03;100322.19;5058581;28;20460;-67
2023/08/19 05:14:51;;;;;;;21.30;6.32;;;;;;;22.62;71.57;100334.53;5045324;28;20051;-68
2023/08/19 05:17:17;;;;;;;9.02;5.70;;;;;;;22.54;72.20;100323.25;5042478;28;20032;-67
2023/08/19 05:19:42;;;;;;;13.80;5.30;;;;;;;22.46;72.91;100289.16;5051399;28;20084;-69
2023/08/19 05:22:08;;;;;;;11.68;5.50;;;;;;;22.38;72.47;100244.56;5045469;28;20086;-67
2023/08/19 05:24:33;;;;;;;11.90;5.53;;;;;;;22.06;73.45;100202.94;5048097;28;20017;-67
2023/08/19 05:27:00;;;;;;;12.57;5.50;;;;;;;22.10;73.55;100225.66;5046691;28;20417;-67
2023/08/19 05:29:25;;;;;;;12.45;5.32;;;;;;;22.30;74.08;100267.44;5047420;28;20048;-67
2023/08/19 05:31:51;;;;;;;12.52;5.28;;;;;;;22.34;73.18;100277.00;5047833;28;20060;-67
2023/08/19 05:34:16;;;;;;;12.52;5.85;;;;;;;21.90;72.73;100237.31;5049838;28;20021;-66
2023/08/19 05:36:42;;;;;;;13.30;6.30;;;;;;;21.74;74.18;100318.09;5046949;28;20028;-67
2023/08/19 05:39:07;;;;;;;9.90;6.07;;;;;;;20.92;76.03;100289.16;5048408;28;20044;-70
2023/08/19 05:41:33;;;;;;;13.02;5.72;;;;;;;21.26;76.45;100378.97;5050102;28;20160;-70
2023/08/19 05:43:59;;;;;;;7.82;4.50;;;;;;;21.20;76.38;100375.50;5047846;28;20450;-69
2023/08/19 05:46:24;;;;;;;8.82;5.05;;;;;;;21.21;76.82;100356.25;5046806;28;20047;-70
2023/08/19 05:48:49;;;;;;;9.63;5.43;;;;;;;21.41;76.25;100329.81;5046417;28;20120;-69
2023/08/19 05:51:15;;;;;;;9.02;6.60;;;;;;;21.58;75.85;100306.03;5048873;28;20472;-68
2023/08/19 05:53:40;;;;;;;9.40;4.88;;;;;;;21.65;74.33;100320.84;5048016;28;20035;-67
2023/08/19 05:56:06;;;;;;;8.50;4.28;;;;;;;21.75;74.58;100361.88;5047340;28;20424;-71
2023/08/19 05:58:32;;;;;;;12.20;6.43;;;;;;;21.95;76.93;100418.63;5047302;28;20033;-69
2023/08/19 06:01:03;;;;;;;10.30;6.05;;;;;;;21.84;75.46;100395.06;5045427;28;20036;-71
2023/08/19 06:03:28;;;;;;;34.45;17.50;;;;;;;22.10;74.73;100425.47;5044027;28;20047;-67
2023/08/19 06:05:54;;;;;;;44.65;22.88;;;;;;;21.88;72.79;100367.91;5049190;28;20580;-71
2023/08/19 06:08:19;;;;;;;33.47;18.10;;;;;;;22.48;71.25;100460.13;5047505;28;20033;-68
2023/08/19 06:10:45;;;;;;;36.05;17.20;;;;;;;22.62;70.50;100466.94;5049331;28;20033;-70
2023/08/19 06:13:11;;;;;;;24.55;12.57;;;;;;;22.77;69.41;100457.97;5047051;28;20086;-69
2023/08/19 06:15:37;;;;;;;12.05;5.65;;;;;;;22.91;70.45;100425.31;5047381;28;20124;-73
2023/08/19 06:18:02;;;;;;;8.27;4.70;;;;;;;23.04;70.11;100407.56;5047277;28;20112;-68
2023/08/19 06:20:28;;;;;;;9.13;5.22;;;;;;;23.17;69.16;100403.03;5046124;28;20044;-73
2023/08/19 06:22:53;;;;;;;11.27;4.35;;;;;;;23.25;71.41;100399.38;5047877;28;20032;-69
2023/08/19 06:25:19;;;;;;;9.52;4.80;;;;;;;23.46;68.79;100423.59;5048605;28;20082;-68
2023/08/19 06:27:44;;;;;;;8.15;4.40;;;;;;;23.17;67.72;100356.47;5046968;28;20037;-68
2023/08/19 06:30:11;;;;;;;7.03;4.20;;;;;;;23.73;66.14;100422.25;5047242;28;20029;-68
2023/08/19 06:32:36;;;;;;;6.28;4.00;;;;;;;23.59;67.36;100361.88;5046750;28;20428;-70
2023/08/19 06:35:03;;;;;;;10.75;4.70;;;;;;;24.17;67.49;100413.53;5047291;28;20029;-69
2023/08/19 06:37:31;;;;;;;6.32;4.45;;;;;;;23.96;69.15;100360.31;5047080;28;20029;-70
2023/08/19 06:40:01;;;;;;;10.10;4.18;;;;;;;24.49;68.02;100428.69;5046858;28;20049;-70
2023/08/19 06:42:28;;;;;;;10.02;4.90;;;;;;;24.57;68.92;100432.94;5045489;28;20025;-69
2023/08/19 06:44:59;;;;;;;6.45;4.53;;;;;;;24.71;67.59;100428.25;5046176;28;20064;-71
2023/08/19 06:47:29;;;;;;;6.85;4.20;;;;;;;24.90;65.68;100434.00;5047769;28;20021;-70
2023/08/19 06:49:55;;;;;;;11.88;4.43;;;;;;;25.11;66.76;100418.53;5046621;28;20124;-70
2023/08/19 06:52:21;;;;;;;7.25;4.15;;;;;;;25.23;65.07;100410.31;5047543;28;20103;-71
2023/08/19 06:54:48;;;;;;;11.00;4.43;;;;;;;25.36;66.15;100395.03;5047123;28;20033;-69
2023/08/19 06:57:29;;;;;;;7.25;4.47;;;;;;;25.26;68.37;100341.53;5045832;28;20029;-70
2023/08/19 07:00:07;;;;;;;8.23;5.35;;;;;;;25.67;64.93;100360.75;5044978;28;20120;-68
2023/08/19 07:02:36;;;;;;;15.82;5.05;;;;;;;25.97;66.02;100375.78;5046484;28;20020;-73
2023/08/19 07:05:05;;;;;;;12.98;4.93;;;;;;;26.06;64.59;100393.22;5050680;28;20424;-68
2023/08/19 07:07:33;;;;;;;10.63;4.72;;;;;;;26.06;65.85;100391.44;5051103;28;20029;-70
2023/08/19 07:09:58;;;;;;;7.32;4.28;;;;;;;26.08;63.59;100404.59;5049579;28;20033;-68
2023/08/19 07:12:24;;;;;;;8.25;4.70;;;;;;;26.07;64.69;100414.34;5049682;28;20048;-69
2023/08/19 07:14:50;;;;;;;8.63;4.65;;;;;;;25.20;64.66;100268.59;5049518;28;20029;-69
2023/08/19 07:17:22;;;;;;;10.45;5.25;;;;;;;26.04;64.43;100408.22;5049137;28;20040;-71
2023/08/19 07:19:51;;;;;;;22.50;6.15;;;;;;;26.04;65.87;100422.31;5051524;28;20404;-68
2023/08/19 07:22:17;;;;;;;17.13;6.43;;;;;;;26.20;64.70;100424.56;5061583;28;20021;-68
2023/08/19 07:24:43;;;;;;;14.55;4.75;;;;;;;26.44;62.48;100425.63;5041083;28;20037;-69
2023/08/19 07:27:09;;;;;;;10.23;4.30;;;;;;;26.69;60.43;100427.53;5037684;28;20530;-67
2023/08/19 07:29:37;;;;;;;10.35;4.85;;;;;;;26.48;61.62;100367.25;5043256;28;20037;-69
2023/08/19 07:32:05;;;;;;;7.50;4.53;;;;;;;26.88;61.16;100417.25;5043465;28;20446;-72
2023/08/19 07:34:30;;;;;;;10.00;4.70;;;;;;;26.85;62.91;100394.38;5042830;28;20727;-67
2023/08/19 07:36:56;;;;;;;11.93;4.90;;;;;;;27.01;61.04;100423.88;5033809;28;20034;-69
2023/08/19 07:39:23;;;;;;;8.05;4.50;;;;;;;27.05;61.03;100419.38;5041420;28;20085;-68
2023/08/19 07:41:49;;;;;;;16.30;5.78;;;;;;;27.10;64.95;100420.97;5040231;28;20492;-68
2023/08/19 07:44:14;;;;;;;15.52;4.93;;;;;;;27.20;59.74;100424.16;5043405;28;20135;-68
2023/08/19 07:46:40;;;;;;;14.23;5.65;;;;;;;27.25;60.83;100416.06;5043196;28;20052;-66
2023/08/19 07:49:05;;;;;;;23.67;5.60;;;;;;;27.24;60.72;100383.41;5041654;28;20056;-66
2023/08/19 07:51:32;;;;;;;9.68;5.57;;;;;;;27.58;58.87;100416.72;5048215;28;20055;-68
2023/08/19 07:53:58;;;;;;;11.13;5.13;;;;;;;27.74;58.33;100419.72;5042710;28;20022;-68
2023/08/19 07:56:23;;;;;;;8.85;4.60;;;;;;;27.51;59.36;100367.47;5046854;28;20030;-70
2023/08/19 07:58:51;;;;;;;11.43;4.55;;;;;;;27.86;55.96;100414.88;5062823;28;20041;-69
2023/08/19 08:01:19;;;;;;;9.70;5.82;;;;;;;27.98;58.24;100425.06;5043292;28;20504;-68
2023/08/19 08:03:45;;;;;;;9.95;4.68;;;;;;;27.97;59.10;100417.16;5042273;28;20043;-68
2023/08/19 08:06:11;;;;;;;41.10;32.90;;;;;;;27.99;58.87;100417.94;5049763;28;20021;-67
2023/08/19 08:08:37;;;;;;;9.80;4.88;;;;;;;28.12;57.88;100413.09;5045190;28;20033;-69
2023/08/19 08:11:03;;;;;;;11.20;4.18;;;;;;;28.29;57.37;100415.09;5051671;28;20031;-68
2023/08/19 08:13:29;;;;;;;7.22;3.80;;;;;;;28.14;58.50;100364.34;5065124;28;20412;-69
2023/08/19 08:15:58;;;;;;;12.27;6.53;;;;;;;28.51;57.60;100410.72;5049605;28;20025;-67
2023/08/19 08:18:24;;;;;;;11.18;5.32;;;;;;;28.72;56.67;100419.69;5046861;28;20037;-70
2023/08/19 08:20:52;;;;;;;9.43;4.32;;;;;;;28.78;57.34;100410.59;5040482;28;20047;-67
2023/08/19 08:23:18;;;;;;;7.03;3.63;;;;;;;29.01;52.60;100409.66;5042312;28;20036;-69
2023/08/19 08:25:43;;;;;;;17.20;5.50;;;;;;;29.18;50.76;100411.59;5057933;28;20049;-69
2023/08/19 08:28:09;;;;;;;12.05;3.42;;;;;;;29.30;52.42;100412.94;5035260;28;20028;-71
2023/08/19 08:30:34;;;;;;;10.23;3.08;;;;;;;29.30;52.67;100414.72;5039509;28;20132;-71
2023/08/19 08:33:00;;;;;;;10.02;4.10;;;;;;;29.36;52.77;100414.47;5039708;28;20538;-70
2023/08/19 08:35:26;;;;;;;10.93;3.80;;;;;;;29.46;52.16;100409.59;5029259;28;20550;-73
2023/08/19 08:37:51;;;;;;;10.18;3.65;;;;;;;29.51;52.13;100404.97;5037818;28;20064;-73
2023/08/19 08:40:17;;;;;;;11.48;4.18;;;;;;;29.64;52.30;100395.50;5039597;28;20045;-67
2023/08/19 08:42:46;;;;;;;9.82;3.83;;;;;;;29.34;51.87;100333.88;5039715;28;20483;-67
2023/08/19 08:45:12;;;;;;;12.60;4.07;;;;;;;29.77;51.38;100395.84;5037912;28;20055;-72
2023/08/19 08:47:40;;;;;;;9.45;3.50;;;;;;;29.87;54.01;100404.28;5038209;28;20036;-67
2023/08/19 08:50:06;;;;;;;8.07;4.00;;;;;;;29.89;51.77;100402.44;5030628;28;20055;-68
2023/08/19 08:52:31;;;;;;;29.33;6.22;;;;;;;30.02;52.50;100392.13;5035808;28;20033;-69
2023/08/19 08:55:00;;;;;;;9.93;4.40;;;;;;;30.12;51.42;100393.41;5038898;28;20413;-71
2023/08/19 08:57:25;;;;;;;13.47;4.90;;;;;;;30.26;53.94;100398.09;5039409;28;20091;-67
2023/08/19 08:59:52;;;;;;;25.55;6.38;;;;;;;30.36;50.58;100387.88;5038656;28;20761;-67
2023/08/19 09:02:19;;;;;;;11.90;4.20;;;;;;;30.45;53.45;100384.75;5040261;28;20041;-69
2023/08/19 09:04:46;;;;;;;12.93;4.13;;;;;;;30.54;50.49;100379.97;5039211;28;20028;-69
2023/08/19 09:07:36;;;;;;;11.05;4.43;;;;;;;30.57;49.74;100377.16;5046864;28;20033;-68
2023/08/19 09:10:02;;;;;;;9.52;4.20;;;;;;;30.60;50.62;100371.69;5050926;28;20091;-68
2023/08/19 09:12:44;;;;;;;11.25;4.03;;;;;;;30.79;51.08;100385.84;5046821;28;20395;-68
2023/08/19 09:15:11;;;;;;;7.03;3.92;;;;;;;30.86;50.46;100372.22;5048406;28;20423;-68
2023/08/19 09:17:39;;;;;;;16.05;4.97;;;;;;;30.93;49.68;100360.28;5062977;28;20033;-68
2023/08/19 09:20:09;;;;;;;13.52;5.13;;;;;;;31.08;52.62;100366.69;5041616;28;20119;-68
2023/08/19 09:22:42;;;;;;;7.93;4.07;;;;;;;31.17;50.23;100357.34;5037078;28;20075;-69
2023/08/19 09:25:13;;;;;;;11.82;4.85;;;;;;;31.36;47.54;100355.47;5037496;28;20038;-68
2023/08/19 09:27:38;;;;;;;14.57;4.53;;;;;;;31.46;47.14;100351.38;5038623;28;20404;-68
2023/08/19 09:30:07;;;;;;;13.52;4.60;;;;;;;31.61;43.78;100339.03;5040742;28;20029;-69
2023/08/19 09:32:47;;;;;;;18.20;5.47;;;;;;;31.76;43.10;100356.06;5043164;28;20063;-68
2023/08/19 09:35:48;;;;;;;10.05;4.70;;;;;;;31.62;43.20;100326.56;5051189;28;20036;-68
2023/08/19 09:38:25;;;;;;;13.07;5.28;;;;;;;31.63;43.23;100322.94;5050142;28;20049;-67
2023/08/19 09:41:06;;;;;;;15.60;4.75;;;;;;;31.73;43.50;100350.03;5038107;28;20040;-67
2023/08/19 09:43:33;;;;;;;21.05;6.18;;;;;;;31.74;43.60;100336.63;5039433;28;20025;-66
2023/08/19 09:45:59;;;;;;;13.50;4.80;;;;;;;31.88;43.46;100345.69;5045138;28;20048;-70
2023/08/19 09:48:28;;;;;;;15.18;4.90;;;;;;;32.02;42.34;100350.25;5044509;28;20128;-68
2023/08/19 09:50:54;;;;;;;15.77;5.10;;;;;;;32.28;42.69;100348.84;5036564;28;20091;-66
2023/08/19 09:53:20;;;;;;;14.25;5.63;;;;;;;32.50;40.59;100351.19;5056821;28;20485;-68
2023/08/19 09:55:50;;;;;;;6.90;3.40;;;;;;;32.63;40.33;100332.59;5072342;28;20072;-69
2023/08/19 09:58:16;;;;;;;16.40;6.00;;;;;;;32.81;42.58;100336.06;5042123;28;20097;-72
2023/08/19 10:00:42;;;;;;;9.27;4.00;;;;;;;32.93;39.72;100350.53;5039976;28;20033;-69
2023/08/19 10:03:13;;;;;;;5.88;3.63;;;;;;;33.09;38.81;100333.56;5039740;28;20032;-68
2023/08/19 10:05:48;;;;;;;8.63;3.88;;;;;;;32.70;39.81;100275.19;5039481;28;20033;-68
2023/08/19 10:08:23;;;;;;;11.05;4.80;;;;;;;33.16;37.91;100341.13;5039179;28;20123;-68
2023/08/19 10:10:49;;;;;;;15.50;5.15;;;;;;;33.08;38.91;100311.31;5050293;28;20037;-70
2023/08/19 10:13:17;;;;;;;15.45;4.93;;;;;;;33.38;38.92;100324.66;5039981;28;20053;-69
2023/08/19 10:15:45;;;;;;;16.00;5.40;;;;;;;33.51;38.11;100327.44;5049482;28;20063;-69
2023/08/19 10:18:27;;;;;;;10.27;6.13;;;;;;;33.58;37.29;100308.34;5049672;28;20123;-69
2023/08/19 10:21:01;;;;;;;21.75;6.15;;;;;;;33.62;37.22;100325.91;5038106;28;20037;-69
2023/08/19 10:23:28;;;;;;;17.88;6.45;;;;;;;33.73;38.23;100325.25;5042109;28;20447;-69
2023/08/19 10:25:54;;;;;;;18.80;5.70;;;;;;;33.92;37.50;100323.19;5039220;28;20443;-69
2023/08/19 10:28:39;;;;;;;6.80;3.40;;;;;;;34.14;37.63;100316.44;5076801;28;20549;-69
2023/08/19 10:31:10;;;;;;;13.35;4.75;;;;;;;34.05;37.40;100311.66;5080140;28;20048;-69
2023/08/19 10:33:39;;;;;;;9.02;4.53;;;;;;;34.16;36.64;100314.53;5070065;28;20040;-69
2023/08/19 10:36:07;;;;;;;13.13;4.60;;;;;;;34.17;36.42;100297.47;5077815;28;20115;-71
2023/08/19 10:39:00;;;;;;;12.88;4.40;;;;;;;34.28;36.94;100300.31;5057862;28;20048;-68
2023/08/19 10:41:38;;;;;;;12.45;4.00;;;;;;;34.42;36.11;100293.22;5082962;28;20400;-69
2023/08/19 10:44:04;;;;;;;12.50;4.47;;;;;;;34.46;34.79;100292.91;5045475;28;20048;-68
2023/08/19 10:46:35;;;;;;;14.10;6.00;;;;;;;34.50;34.44;100291.75;5059606;28;20454;-70
2023/08/19 10:49:03;;;;;;;11.90;5.55;;;;;;;34.46;34.37;100290.22;5064307;28;20187;-68
2023/08/19 10:51:47;;;;;;;11.20;4.68;;;;;;;34.66;35.67;100299.63;5040310;28;20054;-70
2023/08/19 10:54:28;;;;;;;10.73;4.05;;;;;;;34.88;35.40;100290.16;5051343;28;20052;-69
2023/08/19 10:57:13;;;;;;;13.30;4.57;;;;;;;35.04;34.89;100291.78;5061886;28;20503;-69
2023/08/19 10:59:41;;;;;;;5.35;3.20;;;;;;;35.01;36.10;100284.81;5051523;28;20067;-70
2023/08/19 11:02:09;;;;;;;7.63;4.00;;;;;;;35.03;35.61;100282.00;5040714;28;20126;-67
2023/08/19 11:04:43;;;;;;;11.23;4.32;;;;;;;34.99;36.16;100289.41;5046339;28;20456;-69
2023/08/19 11:07:12;;;;;;;9.00;4.20;;;;;;;34.73;37.13;100289.34;5046844;28;20052;-69
2023/08/19 11:09:42;;;;;;;7.25;3.75;;;;;;;34.69;37.04;100278.94;5039373;28;20041;-69
2023/08/19 11:12:08;;;;;;;6.93;3.72;;;;;;;34.50;36.33;100280.16;5038867;28;20132;-68
2023/08/19 11:14:36;;;;;;;6.45;3.75;;;;;;;34.19;36.04;100292.88;5041315;28;20037;-68
2023/08/19 11:17:02;;;;;;;10.20;4.07;;;;;;;34.15;36.22;100291.38;5041238;28;20132;-69
2023/08/19 11:19:30;;;;;;;9.70;3.97;;;;;;;34.53;36.02;100289.81;5040620;28;20029;-68
2023/08/19 11:21:57;;;;;;;14.52;5.55;;;;;;;34.50;34.86;100294.41;5042094;28;20504;-68
2023/08/19 11:24:31;;;;;;;14.23;5.32;;;;;;;34.29;35.71;100301.19;5043157;28;20037;-68